Time;durP1;ratioP1;P1;durP2;ratioP2;P2;SDS_P1;SDS_P2;PMS_P1;PMS_P2;Temp;Humidity;BMP_temperature;BMP_pressure;BME280_temperature;BME280_humidity;BME280_pressure;Samples;Min_cycle;Max_cycle;Signal;HPM_P1;HPM_P2
2021/09/19 00:01:13;;;;;;;3.30;3.00;;;17.60;73.60;;;;;;5055612;28;20454;-71
2021/09/19 00:03:41;;;;;;;3.27;2.97;;;17.70;73.90;;;;;;5055266;28;20518;-71
2021/09/19 00:06:09;;;;;;;5.80;2.80;;;17.70;73.80;;;;;;5055573;28;20562;-71
2021/09/19 00:08:36;;;;;;;2.87;2.67;;;17.60;73.80;;;;;;5055340;28;20454;-71
2021/09/19 00:11:03;;;;;;;3.57;3.27;;;17.60;73.80;;;;;;5055499;28;20449;-71
2021/09/19 00:13:30;;;;;;;3.17;2.97;;;17.60;73.90;;;;;;5055320;28;20442;-71
2021/09/19 00:15:57;;;;;;;5.63;3.47;;;17.60;74.00;;;;;;5055305;28;20467;-71
2021/09/19 00:18:23;;;;;;;3.47;3.17;;;17.60;74.30;;;;;;5054917;28;20454;-71
2021/09/19 00:20:50;;;;;;;3.10;2.80;;;17.60;74.20;;;;;;5055180;28;20461;-71
2021/09/19 00:23:18;;;;;;;3.30;2.70;;;17.60;74.20;;;;;;5054797;28;21033;-71
2021/09/19 00:25:45;;;;;;;4.20;3.50;;;17.60;74.30;;;;;;5053833;28;20461;-71
2021/09/19 00:28:12;;;;;;;3.90;3.40;;;17.50;74.30;;;;;;5055015;28;20827;-71
2021/09/19 00:30:39;;;;;;;5.23;3.17;;;17.50;74.30;;;;;;5055099;28;20430;-71
2021/09/19 00:33:05;;;;;;;3.10;2.90;;;17.50;74.40;;;;;;5054921;28;20449;-71
2021/09/19 00:35:32;;;;;;;3.53;3.23;;;17.50;74.50;;;;;;5085918;22;20534;-74
2021/09/19 00:37:59;;;;;;;3.00;2.80;;;17.40;74.60;;;;;;5074541;28;20929;-74
2021/09/19 00:40:27;;;;;;;3.27;3.00;;;17.40;74.60;;;;;;5074850;28;20421;-76
2021/09/19 00:42:54;;;;;;;3.00;2.73;;;17.40;74.60;;;;;;5074761;28;20480;-75
2021/09/19 00:45:23;;;;;;;3.60;2.70;;;17.40;74.60;;;;;;5079980;28;20829;-74
2021/09/19 00:47:51;;;;;;;3.13;2.93;;;17.40;74.70;;;;;;5094937;28;20439;-75
2021/09/19 00:50:21;;;;;;;3.20;3.00;;;17.30;74.60;;;;;;5094870;28;20484;-75
2021/09/19 00:52:48;;;;;;;3.27;2.97;;;17.30;74.70;;;;;;5094768;28;20444;-76
2021/09/19 00:55:16;;;;;;;3.40;2.87;;;17.30;74.70;;;;;;5094653;28;20471;-76
2021/09/19 00:57:47;;;;;;;3.37;2.73;;;17.30;75.00;;;;;;5094709;28;20491;-76
2021/09/19 01:00:17;;;;;;;3.43;3.00;;;17.30;75.10;;;;;;5094715;28;20412;-76
2021/09/19 01:02:44;;;;;;;3.67;3.37;;;17.30;75.30;;;;;;5094601;28;20497;-76
2021/09/19 01:05:13;;;;;;;4.30;3.90;;;17.30;75.40;;;;;;5094502;28;20472;-76
2021/09/19 01:07:41;;;;;;;3.60;3.30;;;17.30;75.50;;;;;;5094562;28;20451;-75
2021/09/19 01:10:09;;;;;;;3.57;3.10;;;17.20;75.40;;;;;;5094470;28;20505;-76
2021/09/19 01:12:36;;;;;;;3.33;3.03;;;17.20;75.60;;;;;;5094142;28;20959;-76
2021/09/19 01:15:05;;;;;;;4.57;2.83;;;17.20;75.70;;;;;;5094374;28;20463;-76
2021/09/19 01:17:32;;;;;;;2.90;2.70;;;17.20;75.70;;;;;;5094390;28;20808;-76
2021/09/19 01:19:59;;;;;;;3.23;2.87;;;17.20;75.90;;;;;;5094017;28;20940;-76
2021/09/19 01:22:31;;;;;;;3.57;3.27;;;17.20;76.50;;;;;;5094280;28;20485;-76
2021/09/19 01:25:00;;;;;;;3.30;3.10;;;17.20;75.80;;;;;;5094098;28;20490;-76
2021/09/19 01:27:27;;;;;;;3.00;2.70;;;17.20;75.80;;;;;;5094194;28;20454;-76
2021/09/19 01:29:53;;;;;;;2.50;2.30;;;17.20;75.90;;;;;;5094126;28;20440;-76
2021/09/19 01:32:22;;;;;;;3.53;2.73;;;17.20;76.00;;;;;;5094085;28;20452;-76
2021/09/19 01:34:49;;;;;;;2.20;2.00;;;17.10;75.90;;;;;;5093863;28;20493;-76
2021/09/19 01:37:16;;;;;;;3.57;2.70;;;17.10;76.00;;;;;;5094006;28;20455;-76
2021/09/19 01:39:44;;;;;;;2.90;2.70;;;17.10;76.00;;;;;;5093645;28;20440;-75
2021/09/19 01:42:13;;;;;;;2.63;2.43;;;17.10;76.20;;;;;;5093967;28;20444;-75
2021/09/19 01:44:40;;;;;;;2.87;2.67;;;17.10;76.40;;;;;;5093807;28;20487;-75
2021/09/19 01:47:07;;;;;;;3.30;2.33;;;17.00;76.70;;;;;;5093824;28;20444;-75
2021/09/19 01:49:34;;;;;;;2.60;2.40;;;17.00;76.80;;;;;;5093873;28;20443;-75
2021/09/19 01:52:01;;;;;;;2.93;2.70;;;17.10;77.10;;;;;;5093784;28;20501;-76
2021/09/19 01:54:28;;;;;;;3.43;2.43;;;17.00;77.00;;;;;;5094004;28;20440;-74
2021/09/19 01:56:55;;;;;;;2.77;2.57;;;17.00;77.00;;;;;;5093415;28;20491;-75
2021/09/19 01:59:23;;;;;;;2.73;2.50;;;17.00;77.00;;;;;;5093701;28;20448;-75
2021/09/19 02:01:49;;;;;;;3.50;2.53;;;17.00;77.10;;;;;;5093933;28;20443;-75
2021/09/19 02:04:16;;;;;;;2.73;2.47;;;17.00;77.30;;;;;;5093549;28;20842;-75
2021/09/19 02:06:43;;;;;;;3.97;2.23;;;17.00;77.50;;;;;;5093535;28;20467;-75
2021/09/19 02:09:10;;;;;;;2.27;2.17;;;17.00;77.50;;;;;;5093287;28;20956;-75
2021/09/19 02:11:36;;;;;;;2.10;2.00;;;17.00;77.70;;;;;;5093519;28;20446;-75
2021/09/19 02:14:03;;;;;;;2.10;2.00;;;17.00;77.70;;;;;;5093277;28;20447;-75
2021/09/19 02:16:31;;;;;;;1.93;1.83;;;17.00;77.60;;;;;;5093443;28;20467;-75
2021/09/19 02:18:58;;;;;;;2.20;2.00;;;17.00;77.50;;;;;;5093186;28;20443;-75
2021/09/19 02:21:26;;;;;;;3.10;2.80;;;17.00;77.50;;;;;;5093563;28;20427;-75
2021/09/19 02:23:53;;;;;;;2.37;2.23;;;17.00;77.50;;;;;;5093382;28;20509;-75
2021/09/19 02:26:20;;;;;;;1.90;1.80;;;17.00;77.50;;;;;;5093355;28;20459;-75
2021/09/19 02:28:47;;;;;;;2.63;2.40;;;16.90;77.20;;;;;;5093404;28;20443;-75
2021/09/19 02:31:13;;;;;;;2.70;2.27;;;16.90;77.20;;;;;;5093442;28;20440;-75
2021/09/19 02:33:41;;;;;;;3.33;2.30;;;16.90;77.10;;;;;;5093613;28;20436;-75
2021/09/19 02:36:08;;;;;;;2.73;2.53;;;16.90;77.10;;;;;;5093120;28;20479;-75
2021/09/19 02:38:35;;;;;;;2.47;2.28;;;16.80;77.10;;;;;;5092069;28;20805;-75
2021/09/19 02:41:02;;;;;;;2.80;2.40;;;16.80;77.10;;;;;;5093340;28;20198;-75
2021/09/19 02:43:29;;;;;;;2.00;1.90;;;16.80;77.20;;;;;;5093195;28;20479;-75
2021/09/19 02:45:56;;;;;;;2.50;2.30;;;16.80;77.50;;;;;;5093268;28;20464;-75
2021/09/19 02:48:23;;;;;;;3.60;2.67;;;16.70;77.30;;;;;;5092953;28;20449;-75
2021/09/19 02:50:51;;;;;;;2.77;2.50;;;16.70;77.40;;;;;;5096905;28;20834;-75
2021/09/19 02:53:18;;;;;;;2.83;2.33;;;16.70;77.40;;;;;;5097110;28;20451;-75
2021/09/19 02:55:45;;;;;;;2.60;2.40;;;16.60;77.40;;;;;;5096998;28;20463;-75
2021/09/19 02:58:12;;;;;;;3.13;2.47;;;16.60;77.60;;;;;;5096705;28;20446;-75
2021/09/19 03:00:39;;;;;;;6.00;2.87;;;16.50;77.70;;;;;;5096679;28;20959;-75
2021/09/19 03:03:06;;;;;;;4.70;2.10;;;16.50;77.90;;;;;;5096910;28;20784;-75
2021/09/19 03:05:32;;;;;;;2.40;2.20;;;16.40;77.90;;;;;;5097100;28;20807;-75
2021/09/19 03:08:01;;;;;;;2.60;2.40;;;16.40;78.00;;;;;;5096865;28;20444;-75
2021/09/19 03:10:27;;;;;;;2.27;2.07;;;16.30;78.20;;;;;;5096750;28;20466;-75
2021/09/19 03:12:54;;;;;;;2.47;2.20;;;16.20;78.40;;;;;;5096741;28;20451;-75
2021/09/19 03:15:21;;;;;;;2.00;1.90;;;16.20;78.60;;;;;;5096337;28;20964;-75
2021/09/19 03:17:48;;;;;;;5.03;2.60;;;16.20;78.70;;;;;;5096342;28;20933;-75
2021/09/19 03:20:16;;;;;;;2.57;2.37;;;16.10;78.50;;;;;;5096838;28;20443;-75
2021/09/19 03:22:43;;;;;;;2.20;1.60;;;16.10;78.40;;;;;;5096872;28;20443;-75
2021/09/19 03:25:12;;;;;;;2.23;2.03;;;16.10;78.50;;;;;;5096411;28;20490;-75
2021/09/19 03:27:39;;;;;;;2.70;2.20;;;16.10;78.40;;;;;;5096155;28;20975;-75
2021/09/19 03:30:08;;;;;;;2.07;1.87;;;16.00;78.20;;;;;;5096394;28;20440;-75
2021/09/19 03:32:35;;;;;;;2.30;2.03;;;16.00;78.10;;;;;;5096075;28;20940;-75
2021/09/19 03:35:02;;;;;;;1.97;1.87;;;16.00;77.90;;;;;;5096217;28;20450;-75
2021/09/19 03:37:29;;;;;;;3.13;2.40;;;16.00;77.60;;;;;;5095987;28;20893;-75
2021/09/19 03:39:55;;;;;;;2.20;2.00;;;16.00;77.70;;;;;;5096227;28;20444;-75
2021/09/19 03:42:23;;;;;;;3.57;2.03;;;15.90;77.60;;;;;;5096167;28;20446;-75
2021/09/19 03:44:50;;;;;;;3.23;2.03;;;16.00;77.60;;;;;;5095698;28;20471;-75
2021/09/19 03:47:17;;;;;;;2.00;1.80;;;15.90;77.50;;;;;;5096146;28;20489;-75
2021/09/19 03:49:44;;;;;;;1.70;1.60;;;15.90;77.30;;;;;;5096016;28;20451;-75
2021/09/19 03:52:11;;;;;;;1.80;1.70;;;15.90;77.10;;;;;;5095958;28;20451;-75
2021/09/19 03:54:37;;;;;;;4.10;2.00;;;15.90;77.10;;;;;;5095647;28;20998;-75
2021/09/19 03:57:04;;;;;;;1.90;1.80;;;15.90;77.10;;;;;;5095854;28;20463;-75
2021/09/19 03:59:32;;;;;;;4.33;1.97;;;15.90;77.10;;;;;;5096122;28;20443;-75
2021/09/19 04:01:59;;;;;;;2.53;1.77;;;15.90;77.10;;;;;;5095603;28;20444;-75
2021/09/19 04:04:26;;;;;;;1.70;1.60;;;15.80;76.90;;;;;;5095684;28;20884;-75
2021/09/19 04:06:53;;;;;;;1.60;1.50;;;15.80;76.80;;;;;;5095325;28;20836;-75
2021/09/19 04:09:19;;;;;;;2.23;2.13;;;15.80;76.90;;;;;;5095348;28;20444;-75
2021/09/19 04:11:46;;;;;;;1.53;1.43;;;15.80;77.00;;;;;;5095224;28;20817;-75
2021/09/19 04:14:13;;;;;;;3.00;2.27;;;15.80;77.00;;;;;;5095581;28;20446;-75
2021/09/19 04:16:41;;;;;;;1.60;1.50;;;15.80;77.00;;;;;;5095142;28;21000;-75
2021/09/19 04:19:08;;;;;;;1.87;1.77;;;15.80;76.90;;;;;;5095479;28;20517;-75
2021/09/19 04:21:35;;;;;;;2.40;2.20;;;15.80;76.90;;;;;;5095491;28;20451;-75
2021/09/19 04:24:02;;;;;;;2.30;1.83;;;15.70;76.90;;;;;;5095335;28;20479;-75
2021/09/19 04:26:29;;;;;;;2.13;1.40;;;15.70;77.00;;;;;;5095310;28;20460;-75
2021/09/19 04:28:55;;;;;;;1.73;1.60;;;15.70;77.20;;;;;;5095575;28;20440;-75
2021/09/19 04:31:22;;;;;;;1.80;1.70;;;15.80;77.40;;;;;;5095253;28;20424;-75
2021/09/19 04:33:50;;;;;;;1.97;1.87;;;15.70;77.20;;;;;;5095184;28;20443;-75
2021/09/19 04:36:17;;;;;;;1.73;1.63;;;15.70;77.20;;;;;;5094921;28;20478;-75
2021/09/19 04:38:44;;;;;;;1.50;1.40;;;15.70;77.00;;;;;;5094808;28;20933;-75
2021/09/19 04:41:10;;;;;;;1.93;1.60;;;15.70;77.00;;;;;;5095113;28;20447;-75
2021/09/19 04:43:37;;;;;;;1.70;1.60;;;15.60;76.80;;;;;;5094998;28;20443;-75
2021/09/19 04:46:04;;;;;;;1.57;1.47;;;15.60;76.90;;;;;;5094863;28;20484;-75
2021/09/19 04:48:31;;;;;;;1.87;1.77;;;15.60;76.90;;;;;;5094929;28;20542;-75
2021/09/19 04:50:59;;;;;;;2.00;1.87;;;15.60;76.90;;;;;;5094911;28;20485;-75
2021/09/19 04:53:26;;;;;;;3.63;2.10;;;15.50;76.70;;;;;;5094788;28;20511;-75
2021/09/19 04:55:53;;;;;;;3.10;1.50;;;15.50;76.50;;;;;;5095001;28;20482;-75
2021/09/19 04:58:20;;;;;;;1.40;1.40;;;15.50;76.60;;;;;;5094713;28;20444;-75
2021/09/19 05:00:46;;;;;;;1.80;1.70;;;15.40;76.40;;;;;;5094661;28;20440;-75
2021/09/19 05:03:13;;;;;;;1.57;1.47;;;15.40;76.40;;;;;;5094844;28;20440;-75
2021/09/19 05:05:41;;;;;;;2.03;1.80;;;15.40;76.40;;;;;;5094456;28;20484;-75
2021/09/19 05:08:09;;;;;;;1.77;1.53;;;15.40;76.30;;;;;;5094571;28;20448;-75
2021/09/19 05:10:35;;;;;;;2.93;1.60;;;15.30;76.40;;;;;;5094060;28;20932;-75
2021/09/19 05:13:02;;;;;;;1.93;1.83;;;15.30;76.40;;;;;;5093687;28;20488;-75
2021/09/19 05:15:29;;;;;;;1.73;1.63;;;15.30;76.50;;;;;;5094310;28;20460;-75
2021/09/19 05:17:55;;;;;;;4.87;1.97;;;15.30;76.60;;;;;;5094257;28;20437;-75
2021/09/19 05:20:23;;;;;;;2.13;2.03;;;15.30;76.70;;;;;;5094180;28;20485;-75
2021/09/19 05:22:50;;;;;;;1.60;1.50;;;15.30;76.70;;;;;;5094264;28;20439;-75
2021/09/19 05:25:18;;;;;;;1.60;1.50;;;15.20;76.70;;;;;;5094295;28;20526;-75
2021/09/19 05:27:45;;;;;;;2.63;2.00;;;15.20;76.80;;;;;;5094149;28;20456;-75
2021/09/19 05:30:12;;;;;;;1.57;1.47;;;15.20;76.80;;;;;;5094088;28;20427;-75
2021/09/19 05:32:39;;;;;;;2.27;2.10;;;15.20;77.00;;;;;;5094028;28;20439;-75
2021/09/19 05:35:07;;;;;;;5.13;1.80;;;15.20;77.30;;;;;;5094305;28;20486;-75
2021/09/19 05:37:33;;;;;;;2.00;1.87;;;15.20;77.50;;;;;;5094049;28;20439;-75
2021/09/19 05:40:00;;;;;;;2.23;1.60;;;15.20;77.90;;;;;;5093972;28;20452;-75
2021/09/19 05:42:28;;;;;;;2.30;2.10;;;15.20;78.40;;;;;;5094271;28;20428;-75
2021/09/19 05:44:55;;;;;;;2.10;1.90;;;15.20;78.70;;;;;;5093478;28;20475;-75
2021/09/19 05:47:21;;;;;;;3.60;1.63;;;15.20;78.80;;;;;;5093821;28;20443;-75
2021/09/19 05:49:48;;;;;;;1.67;1.57;;;15.20;79.00;;;;;;5093766;28;20925;-75
2021/09/19 05:52:15;;;;;;;1.90;1.67;;;15.20;79.20;;;;;;5093867;28;20439;-75
2021/09/19 05:54:42;;;;;;;2.03;1.93;;;15.20;79.80;;;;;;5093905;28;20424;-75
2021/09/19 05:57:08;;;;;;;3.10;1.90;;;15.30;80.60;;;;;;5093886;28;20490;-75
2021/09/19 05:59:36;;;;;;;5.47;1.93;;;15.30;81.20;;;;;;5093839;28;20790;-75
2021/09/19 06:02:04;;;;;;;4.20;2.00;;;15.40;82.20;;;;;;5093748;28;20444;-75
2021/09/19 06:04:30;;;;;;;2.80;2.00;;;15.40;82.70;;;;;;5093936;28;20428;-75
2021/09/19 06:06:57;;;;;;;1.73;1.63;;;15.50;83.40;;;;;;5093581;28;20467;-75
2021/09/19 06:09:24;;;;;;;1.83;1.67;;;15.60;84.00;;;;;;5093325;28;20440;-75
2021/09/19 06:11:50;;;;;;;2.60;2.40;;;15.60;84.00;;;;;;5093668;28;20452;-75
2021/09/19 06:14:17;;;;;;;2.37;2.17;;;15.70;84.60;;;;;;5093800;28;20424;-75
2021/09/19 06:16:45;;;;;;;2.43;1.80;;;15.80;84.60;;;;;;5093772;28;20467;-75
2021/09/19 06:19:12;;;;;;;1.70;1.60;;;15.80;84.60;;;;;;5093571;28;20452;-75
2021/09/19 06:21:39;;;;;;;2.50;2.00;;;15.90;84.40;;;;;;5093526;28;20451;-74
2021/09/19 06:24:05;;;;;;;2.40;2.20;;;16.00;84.40;;;;;;5094008;28;20809;-74
2021/09/19 06:26:32;;;;;;;3.30;1.90;;;16.00;84.00;;;;;;5097483;28;20479;-75
2021/09/19 06:28:59;;;;;;;2.80;2.60;;;16.10;84.20;;;;;;5097267;28;20811;-74
2021/09/19 06:31:26;;;;;;;1.97;1.73;;;16.20;84.40;;;;;;5097591;28;20447;-74
2021/09/19 06:33:54;;;;;;;2.40;2.20;;;16.20;84.30;;;;;;5097463;28;20454;-75
2021/09/19 06:36:21;;;;;;;2.93;2.50;;;16.20;84.20;;;;;;5097108;28;20846;-75
2021/09/19 06:38:48;;;;;;;3.33;2.50;;;16.30;84.20;;;;;;5097186;28;20922;-74
2021/09/19 06:41:15;;;;;;;2.17;2.07;;;16.30;84.30;;;;;;5097381;28;20527;-76
2021/09/19 06:43:42;;;;;;;2.93;2.73;;;16.40;84.30;;;;;;5097173;28;20811;-75
2021/09/19 06:46:08;;;;;;;2.90;2.60;;;16.40;84.30;;;;;;5096862;28;20849;-75
2021/09/19 06:48:35;;;;;;;2.93;2.73;;;16.40;84.20;;;;;;5096954;28;20447;-74
2021/09/19 06:51:03;;;;;;;2.30;2.20;;;16.50;84.10;;;;;;5097159;28;20450;-75
2021/09/19 06:53:30;;;;;;;2.63;2.43;;;16.50;84.10;;;;;;5097188;28;20451;-76
2021/09/19 06:55:57;;;;;;;3.00;2.70;;;16.60;84.00;;;;;;5096927;28;20470;-74
2021/09/19 06:58:23;;;;;;;2.33;2.17;;;16.60;84.00;;;;;;5103239;22;20516;-70
2021/09/19 07:00:50;;;;;;;3.30;2.63;;;16.60;83.60;;;;;;5057051;28;20441;-70
2021/09/19 07:03:17;;;;;;;2.87;2.67;;;16.70;83.50;;;;;;5056730;28;20441;-69
2021/09/19 07:05:43;;;;;;;2.80;2.60;;;16.70;83.20;;;;;;5056650;28;20841;-70
2021/09/19 07:08:11;;;;;;;2.90;2.70;;;16.80;82.90;;;;;;5063943;28;20498;-69
2021/09/19 07:10:38;;;;;;;3.23;3.00;;;16.90;82.80;;;;;;5076327;28;20802;-69
2021/09/19 07:13:05;;;;;;;3.30;2.63;;;16.90;82.40;;;;;;5076511;28;20444;-69
2021/09/19 07:15:32;;;;;;;4.80;2.63;;;17.00;82.50;;;;;;5076485;28;20828;-69
2021/09/19 07:17:58;;;;;;;2.83;2.63;;;17.10;82.30;;;;;;5077277;28;20467;-69
2021/09/19 07:20:25;;;;;;;3.53;2.43;;;17.20;82.00;;;;;;5076495;28;20444;-69
2021/09/19 07:22:52;;;;;;;3.40;2.60;;;17.30;81.70;;;;;;5076348;28;20448;-69
2021/09/19 07:25:20;;;;;;;2.90;2.70;;;17.40;81.20;;;;;;5076226;28;20480;-69
2021/09/19 07:27:47;;;;;;;2.37;2.27;;;17.40;81.00;;;;;;5076287;28;20877;-69
2021/09/19 07:30:15;;;;;;;3.20;3.00;;;17.50;80.60;;;;;;5076239;28;20494;-69
2021/09/19 07:32:42;;;;;;;2.63;2.43;;;17.60;79.90;;;;;;5076191;28;20470;-69
2021/09/19 07:35:09;;;;;;;3.60;2.83;;;17.70;79.70;;;;;;5075549;28;20448;-69
2021/09/19 07:37:38;;;;;;;3.03;2.83;;;17.80;79.40;;;;;;5076048;28;20471;-69
2021/09/19 07:40:06;;;;;;;3.70;3.40;;;17.80;79.10;;;;;;5076136;28;20452;-70
2021/09/19 07:42:34;;;;;;;3.50;3.20;;;17.90;78.90;;;;;;5075979;28;20456;-69
2021/09/19 07:45:02;;;;;;;3.13;2.90;;;18.00;78.50;;;;;;5075782;28;20445;-69
2021/09/19 07:47:31;;;;;;;4.20;3.47;;;18.10;78.30;;;;;;5075829;28;20441;-69
2021/09/19 07:49:58;;;;;;;3.10;2.90;;;18.30;77.40;;;;;;5075864;28;20447;-69
2021/09/19 07:52:26;;;;;;;3.00;2.80;;;18.30;76.50;;;;;;5075796;28;20440;-69
2021/09/19 07:54:54;;;;;;;3.60;3.17;;;18.40;76.60;;;;;;5075758;28;20498;-69
2021/09/19 07:57:21;;;;;;;3.73;3.33;;;18.50;76.80;;;;;;5075517;28;20453;-69
2021/09/19 07:59:49;;;;;;;4.17;3.87;;;18.50;76.30;;;;;;5075357;28;20822;-69
2021/09/19 08:02:16;;;;;;;4.43;3.57;;;18.60;76.20;;;;;;5075611;28;20437;-68
2021/09/19 08:04:43;;;;;;;4.33;3.93;;;18.60;75.70;;;;;;5075539;28;20807;-69
2021/09/19 08:07:09;;;;;;;4.70;4.07;;;18.70;75.30;;;;;;5075386;28;20480;-69
2021/09/19 08:09:37;;;;;;;6.30;4.40;;;18.80;75.40;;;;;;5074902;28;20464;-69
2021/09/19 08:12:04;;;;;;;6.57;4.73;;;18.90;75.10;;;;;;5075730;28;20425;-70
2021/09/19 08:14:31;;;;;;;5.00;4.60;;;18.90;74.70;;;;;;5075331;28;20448;-70
2021/09/19 08:16:59;;;;;;;5.00;4.47;;;19.10;74.70;;;;;;5075239;28;20453;-70
2021/09/19 08:19:27;;;;;;;4.30;3.50;;;19.10;74.30;;;;;;5075311;28;20495;-70
2021/09/19 08:21:54;;;;;;;3.37;3.07;;;19.20;73.70;;;;;;5075287;28;20425;-69
2021/09/19 08:24:22;;;;;;;3.53;3.30;;;19.20;73.50;;;;;;5075207;28;20512;-70
2021/09/19 08:26:49;;;;;;;3.57;3.30;;;19.20;72.10;;;;;;5075344;28;20472;-70
2021/09/19 08:29:16;;;;;;;4.33;3.93;;;19.20;72.10;;;;;;5075048;28;20479;-70
2021/09/19 08:31:43;;;;;;;3.53;2.87;;;19.20;72.30;;;;;;5075042;28;20433;-70
2021/09/19 08:34:12;;;;;;;3.80;3.50;;;19.30;72.80;;;;;;5074912;28;20447;-70
2021/09/19 08:36:38;;;;;;;3.80;3.50;;;19.50;72.10;;;;;;5074915;28;20445;-70
2021/09/19 08:39:07;;;;;;;3.40;3.10;;;19.50;71.70;;;;;;5074784;28;20522;-69
2021/09/19 08:41:34;;;;;;;4.00;3.70;;;19.70;71.00;;;;;;5074883;28;20421;-70
2021/09/19 08:44:02;;;;;;;3.17;2.90;;;19.80;70.90;;;;;;5074791;28;20425;-72
2021/09/19 08:46:30;;;;;;;3.23;3.00;;;19.80;70.30;;;;;;5074248;28;20553;-72
2021/09/19 08:48:58;;;;;;;2.80;2.60;;;19.90;69.80;;;;;;5074229;28;20475;-72
2021/09/19 08:51:26;;;;;;;6.37;3.43;;;20.00;69.00;;;;;;5074776;28;20436;-72
2021/09/19 08:53:52;;;;;;;3.53;3.20;;;20.00;68.00;;;;;;5074616;28;20435;-71
2021/09/19 08:56:24;;;;;;;3.40;3.10;;;20.10;67.70;;;;;;5074595;28;20803;-71
2021/09/19 08:58:51;;;;;;;3.43;2.50;;;20.20;67.60;;;;;;5074108;28;20487;-71
2021/09/19 09:01:18;;;;;;;4.03;3.40;;;20.20;67.80;;;;;;5074478;28;20457;-71
2021/09/19 09:03:45;;;;;;;2.83;2.63;;;20.30;66.60;;;;;;5074744;28;20429;-71
2021/09/19 09:06:14;;;;;;;2.80;2.63;;;20.40;67.40;;;;;;5074272;28;20516;-72
2021/09/19 09:08:44;;;;;;;2.67;2.47;;;20.50;67.00;;;;;;5074259;28;20564;-71
2021/09/19 09:11:11;;;;;;;2.30;2.20;;;20.70;66.10;;;;;;5074311;28;20444;-71
2021/09/19 09:13:40;;;;;;;4.97;2.43;;;20.80;64.70;;;;;;5074302;28;20432;-71
2021/09/19 09:16:09;;;;;;;4.40;2.10;;;20.90;63.10;;;;;;5074456;28;20429;-72
2021/09/19 09:18:38;;;;;;;3.30;2.60;;;21.00;62.40;;;;;;5074153;28;20505;-72
2021/09/19 09:21:06;;;;;;;7.73;2.37;;;21.00;61.20;;;;;;5074140;28;20425;-72
2021/09/19 09:23:36;;;;;;;5.70;2.50;;;21.10;61.50;;;;;;5074072;28;20440;-71
2021/09/19 09:26:22;;;;;;;2.17;2.07;;;21.20;60.50;;;;;;5074159;28;20476;-73
2021/09/19 09:28:56;;;;;;;2.63;2.13;;;21.30;60.30;;;;;;5073935;28;20461;-72
2021/09/19 09:31:28;;;;;;;2.30;2.00;;;21.40;60.40;;;;;;5073668;28;20425;-71
2021/09/19 09:34:00;;;;;;;4.00;2.20;;;21.60;59.60;;;;;;5074068;28;20436;-71
2021/09/19 09:36:36;;;;;;;2.07;1.97;;;21.80;58.10;;;;;;5073554;28;20437;-72
2021/09/19 09:39:24;;;;;;;1.80;1.70;;;22.10;58.30;;;;;;5073775;28;20475;-71
2021/09/19 09:41:55;;;;;;;2.50;2.30;;;22.30;57.60;;;;;;5073733;28;20453;-72
2021/09/19 09:44:31;;;;;;;2.80;2.03;;;22.50;56.40;;;;;;5073816;28;20461;-71
2021/09/19 09:46:58;;;;;;;2.00;1.90;;;22.60;55.20;;;;;;5073493;28;20992;-71
2021/09/19 09:49:43;;;;;;;2.17;2.07;;;22.80;56.40;;;;;;5073730;28;20464;-71
2021/09/19 09:52:11;;;;;;;2.27;2.07;;;23.10;55.70;;;;;;5073949;28;20429;-71
2021/09/19 09:54:47;;;;;;;1.73;1.63;;;23.40;54.40;;;;;;5074090;28;20428;-71
2021/09/19 09:57:32;;;;;;;2.60;2.20;;;23.70;53.20;;;;;;5073814;28;20424;-71
2021/09/19 10:00:00;;;;;;;1.67;1.57;;;23.70;52.50;;;;;;5073450;28;20429;-71
2021/09/19 10:02:27;;;;;;;2.33;2.13;;;23.90;52.70;;;;;;5073840;28;20421;-71
2021/09/19 10:04:55;;;;;;;2.27;2.07;;;24.10;51.90;;;;;;5073506;28;20841;-71
2021/09/19 10:07:22;;;;;;;1.87;1.77;;;24.40;51.20;;;;;;5073443;28;20460;-71
2021/09/19 10:09:50;;;;;;;2.63;1.83;;;24.70;50.70;;;;;;5073521;28;20475;-73
2021/09/19 10:12:20;;;;;;;6.33;1.70;;;25.00;49.00;;;;;;5073460;28;20432;-72
2021/09/19 10:14:49;;;;;;;1.60;1.50;;;25.30;48.10;;;;;;5073467;28;20444;-72
2021/09/19 10:17:16;;;;;;;1.43;1.33;;;25.50;46.90;;;;;;5073457;28;20433;-71
2021/09/19 10:19:44;;;;;;;2.07;1.80;;;25.80;46.30;;;;;;5073320;28;20464;-71
2021/09/19 10:22:12;;;;;;;2.03;1.70;;;25.90;46.00;;;;;;5073589;28;20441;-71
2021/09/19 10:24:40;;;;;;;1.63;1.53;;;26.20;46.10;;;;;;5073298;28;20441;-71
2021/09/19 10:27:22;;;;;;;1.50;1.40;;;26.60;45.20;;;;;;5073235;28;20476;-72
2021/09/19 10:29:57;;;;;;;2.57;1.70;;;27.00;43.80;;;;;;5073419;28;20482;-71
2021/09/19 10:32:33;;;;;;;1.43;1.33;;;27.50;42.90;;;;;;5072989;28;20495;-71
2021/09/19 10:34:59;;;;;;;1.40;1.30;;;28.10;41.80;;;;;;5073285;28;20432;-71
2021/09/19 10:37:48;;;;;;;1.77;1.67;;;28.40;39.70;;;;;;5073199;28;20444;-71
2021/09/19 10:40:29;;;;;;;7.90;5.30;;;28.70;39.70;;;;;;5073216;28;20440;-72
2021/09/19 10:42:56;;;;;;;4.50;4.20;;;29.00;39.70;;;;;;5073273;28;20429;-71
2021/09/19 10:45:36;;;;;;;2.00;1.90;;;29.20;39.10;;;;;;5073173;28;20503;-71
2021/09/19 10:48:12;;;;;;;1.50;1.40;;;29.70;37.70;;;;;;5072640;28;20484;-71
2021/09/19 10:50:39;;;;;;;2.50;1.77;;;30.10;36.10;;;;;;5073182;28;20452;-71
2021/09/19 10:53:18;;;;;;;2.60;2.13;;;29.80;36.40;;;;;;5073107;28;20448;-70
2021/09/19 10:55:52;;;;;;;1.60;1.23;;;29.60;37.00;;;;;;5072806;28;20429;-70
2021/09/19 10:58:22;;;;;;;1.70;1.60;;;29.40;36.50;;;;;;5072901;28;20476;-72
2021/09/19 11:01:09;;;;;;;1.27;1.27;;;29.30;37.00;;;;;;5073043;28;20808;-71
2021/09/19 11:03:36;;;;;;;1.53;1.43;;;29.40;36.80;;;;;;5073001;28;20440;-72
2021/09/19 11:06:03;;;;;;;2.97;1.23;;;29.10;37.20;;;;;;5073165;28;20426;-72
2021/09/19 11:08:41;;;;;;;1.80;1.10;;;29.20;36.80;;;;;;5072880;28;20465;-73
2021/09/19 11:11:26;;;;;;;1.13;0.97;;;29.70;34.80;;;;;;5074790;28;20443;-72
2021/09/19 11:14:02;;;;;;;1.97;0.93;;;29.90;34.90;;;;;;5076677;28;20433;-72
2021/09/19 11:16:38;;;;;;;1.60;1.30;;;29.90;35.20;;;;;;5076624;28;20427;-72
2021/09/19 11:19:07;;;;;;;1.43;1.37;;;30.20;34.40;;;;;;5076156;28;20882;-72
2021/09/19 11:21:41;;;;;;;2.00;1.30;;;30.00;35.30;;;;;;5076126;28;20448;-73
2021/09/19 11:24:11;;;;;;;1.20;1.20;;;29.70;35.90;;;;;;5076428;28;20429;-73
2021/09/19 11:26:39;;;;;;;1.67;1.23;;;29.20;36.30;;;;;;5076349;28;20480;-72
2021/09/19 11:29:09;;;;;;;1.40;1.30;;;29.10;37.00;;;;;;5075954;28;20464;-72
2021/09/19 11:31:38;;;;;;;1.37;1.27;;;29.20;36.30;;;;;;5076238;28;20429;-72
2021/09/19 11:34:07;;;;;;;1.80;1.23;;;29.10;37.00;;;;;;5076254;28;20451;-74
2021/09/19 11:36:35;;;;;;;3.50;1.33;;;29.00;37.20;;;;;;5076162;28;20449;-73
2021/09/19 11:39:02;;;;;;;1.47;1.40;;;29.00;37.00;;;;;;5076063;28;20514;-73
2021/09/19 11:41:29;;;;;;;1.30;1.30;;;28.80;37.20;;;;;;5075985;28;20789;-73
2021/09/19 11:43:57;;;;;;;1.50;1.40;;;28.50;37.70;;;;;;5076010;28;20453;-72
2021/09/19 11:46:26;;;;;;;1.40;1.30;;;28.80;37.80;;;;;;5075865;28;20875;-72
2021/09/19 11:48:55;;;;;;;0.97;0.97;;;29.00;37.90;;;;;;5075540;28;20468;-72
2021/09/19 11:51:23;;;;;;;1.50;1.40;;;29.00;37.70;;;;;;5075883;28;20468;-72
2021/09/19 11:53:52;;;;;;;2.73;1.30;;;28.80;37.50;;;;;;5076071;28;20452;-72
2021/09/19 11:56:20;;;;;;;1.57;1.47;;;29.00;37.60;;;;;;5075576;28;20436;-72
2021/09/19 11:58:49;;;;;;;1.50;1.40;;;29.30;36.70;;;;;;5075680;28;20472;-72
2021/09/19 12:01:17;;;;;;;1.63;1.50;;;30.20;35.40;;;;;;5075632;28;20456;-72
2021/09/19 12:03:43;;;;;;;1.77;1.40;;;30.90;34.40;;;;;;5075748;28;20425;-72
2021/09/19 12:06:12;;;;;;;4.50;1.40;;;31.00;33.70;;;;;;5075229;28;20921;-72
2021/09/19 12:08:42;;;;;;;2.03;1.50;;;30.80;33.70;;;;;;5075552;28;20464;-72
2021/09/19 12:11:10;;;;;;;2.90;1.60;;;30.50;34.00;;;;;;5075545;28;20476;-73
2021/09/19 12:13:38;;;;;;;1.50;1.40;;;30.00;34.90;;;;;;5075394;28;20812;-74
2021/09/19 12:16:09;;;;;;;2.07;1.87;;;29.60;36.00;;;;;;5075164;28;20425;-74
2021/09/19 12:18:37;;;;;;;1.50;1.40;;;29.30;37.40;;;;;;5075311;28;20464;-73
2021/09/19 12:21:07;;;;;;;1.60;1.50;;;29.00;37.00;;;;;;5075291;28;20437;-73
2021/09/19 12:23:43;;;;;;;1.80;1.70;;;28.60;37.60;;;;;;5075263;28;20432;-73
2021/09/19 12:26:16;;;;;;;2.20;1.90;;;28.30;38.70;;;;;;5075543;28;20433;-73
2021/09/19 12:28:43;;;;;;;1.93;1.83;;;28.00;38.70;;;;;;5074896;28;20463;-73
2021/09/19 12:31:12;;;;;;;2.20;1.80;;;27.80;39.60;;;;;;5074991;28;20457;-73
2021/09/19 12:33:53;;;;;;;1.97;1.87;;;27.60;39.50;;;;;;5075032;28;20429;-73
2021/09/19 12:36:21;;;;;;;2.33;2.13;;;27.50;40.70;;;;;;5075138;28;20776;-73
2021/09/19 12:38:50;;;;;;;2.07;1.87;;;27.40;40.70;;;;;;5074645;28;20494;-74
2021/09/19 12:41:19;;;;;;;2.57;2.37;;;27.50;39.70;;;;;;5074900;28;20769;-73
2021/09/19 12:43:46;;;;;;;1.67;1.57;;;27.70;39.50;;;;;;5074535;28;20813;-73
2021/09/19 12:46:15;;;;;;;1.63;1.53;;;27.80;39.30;;;;;;5074740;28;20433;-73
2021/09/19 12:48:43;;;;;;;2.10;2.00;;;27.80;39.10;;;;;;5074829;28;20484;-73
2021/09/19 12:51:14;;;;;;;2.20;2.00;;;27.70;39.40;;;;;;5074643;28;20456;-73
2021/09/19 12:53:44;;;;;;;1.97;1.80;;;27.60;39.50;;;;;;5075508;28;20439;-72